KMKE/MKE METAR and TAF weather

Enter ICAO airport designator
Station Type Date Time Source
KMKE METAR 2019/02/20 16:52 UTC NOAA

KMKE 201652Z 11016G26KT 3/4SM R01L/3500V4000FT -FZRA BR OVC004 00/M02 A2984 RMK AO2 PK WND 11026/1647 TWR VIS 1 1/4 FZDZE26FZRAB26 SLP112 P0003 I1020 T00001017


Station Type Date Time Source
KMKE Decoded METAR 2019/02/20 16:52 UTC NOAA

GEN MITCHELL INTERNATIONAL AIRPORT, WI, United States (KMKE) 42-57N 87-54W 206M
Feb 20, 2019 - 11:52 AM EST / 2019.02.20 1652 UTC
Wind: from the ESE (110 degrees) at 18 MPH (16 KT) gusting to 30 MPH (26 KT) (direction variable):0
Visibility: 3/4 mile(s):0
Sky conditions: overcast
Weather: light freezing rain; mist
Precipitation last hour: 0.03 inches
Temperature: 32.0 F (0.0 C)
Windchill: 21 F (-6 C):1
Dew Point: 28.9 F (-1.7 C)
Relative Humidity: 88%
Pressure (altimeter): 29.84 in. Hg (1010 hPa)
ob: KMKE 201652Z 11016G26KT 3/4SM R01L/3500V4000FT -FZRA BR OVC004 00/M02 A2984 RMK AO2 PK WND 11026/1647 TWR VIS 1 1/4 FZDZE26FZRAB26 SLP112 P0003 I1020 T00001017
cycle: 17

Station Type Date Time Source
KMKE TAF 2019/02/20 16:45 UTC NOAA

TAF
AMD KMKE 201543Z 2016/2118 10018G28KT 1SM -FZRASN OVC015
FM201800 12017G27KT 2SM -FZRA OVC010
FM202000 15013G23KT 3SM -RA OVC006
FM202300 21011G19KT P6SM OVC005
FM210300 24015G24KT P6SM OVC017
FM211100 26012KT P6SM BKN025
FM211300 26011KT P6SM SCT025


Example: see airport list